sensor_id;sensor_type;location;lat;lon;timestamp;temperature;humidity
5617;DHT22;2830;50.656;7.568;2024-03-22T00:00:33;8.20;99.90
5617;DHT22;2830;50.656;7.568;2024-03-22T00:02:59;8.10;99.90
5617;DHT22;2830;50.656;7.568;2024-03-22T00:05:25;8.10;99.90
5617;DHT22;2830;50.656;7.568;2024-03-22T00:07:51;8.10;99.90
5617;DHT22;2830;50.656;7.568;2024-03-22T00:10:16;8.10;99.90
5617;DHT22;2830;50.656;7.568;2024-03-22T00:12:42;8.10;99.90
5617;DHT22;2830;50.656;7.568;2024-03-22T00:15:08;8.00;99.90
5617;DHT22;2830;50.656;7.568;2024-03-22T00:17:34;8.00;99.90
5617;DHT22;2830;50.656;7.568;2024-03-22T00:20:01;8.00;99.90
5617;DHT22;2830;50.656;7.568;2024-03-22T00:22:27;8.00;99.90
5617;DHT22;2830;50.656;7.568;2024-03-22T00:24:52;8.00;99.90
5617;DHT22;2830;50.656;7.568;2024-03-22T00:27:18;7.90;99.90
5617;DHT22;2830;50.656;7.568;2024-03-22T00:29:44;7.90;99.90
5617;DHT22;2830;50.656;7.568;2024-03-22T00:32:10;7.80;99.90
5617;DHT22;2830;50.656;7.568;2024-03-22T00:34:36;7.70;99.90
5617;DHT22;2830;50.656;7.568;2024-03-22T00:37:02;7.70;99.90
5617;DHT22;2830;50.656;7.568;2024-03-22T00:39:27;7.60;99.90
5617;DHT22;2830;50.656;7.568;2024-03-22T00:41:53;7.50;99.90
5617;DHT22;2830;50.656;7.568;2024-03-22T00:44:19;7.40;99.90
5617;DHT22;2830;50.656;7.568;2024-03-22T00:46:45;7.40;99.90
5617;DHT22;2830;50.656;7.568;2024-03-22T00:49:11;7.40;99.90
5617;DHT22;2830;50.656;7.568;2024-03-22T00:51:37;7.40;99.90
5617;DHT22;2830;50.656;7.568;2024-03-22T00:54:03;7.30;99.90
5617;DHT22;2830;50.656;7.568;2024-03-22T00:56:29;7.30;99.90
5617;DHT22;2830;50.656;7.568;2024-03-22T00:58:54;7.30;99.90
5617;DHT22;2830;50.656;7.568;2024-03-22T01:01:20;7.20;99.90
5617;DHT22;2830;50.656;7.568;2024-03-22T01:03:46;7.20;99.90
5617;DHT22;2830;50.656;7.568;2024-03-22T01:06:12;7.10;99.90
5617;DHT22;2830;50.656;7.568;2024-03-22T01:08:38;7.10;99.90
5617;DHT22;2830;50.656;7.568;2024-03-22T01:11:04;7.10;99.90
5617;DHT22;2830;50.656;7.568;2024-03-22T01:13:29;7.10;99.90
5617;DHT22;2830;50.656;7.568;2024-03-22T01:15:55;7.20;99.90
5617;DHT22;2830;50.656;7.568;2024-03-22T01:18:21;7.20;99.90
5617;DHT22;2830;50.656;7.568;2024-03-22T01:20:47;7.30;99.90
5617;DHT22;2830;50.656;7.568;2024-03-22T01:23:13;7.30;99.90
5617;DHT22;2830;50.656;7.568;2024-03-22T01:25:39;7.30;99.90
5617;DHT22;2830;50.656;7.568;2024-03-22T01:28:05;7.30;99.90
5617;DHT22;2830;50.656;7.568;2024-03-22T01:30:31;7.40;99.90
5617;DHT22;2830;50.656;7.568;2024-03-22T01:32:56;7.40;99.90
5617;DHT22;2830;50.656;7.568;2024-03-22T01:35:22;7.30;99.90
5617;DHT22;2830;50.656;7.568;2024-03-22T01:37:48;7.30;99.90
5617;DHT22;2830;50.656;7.568;2024-03-22T01:40:14;7.40;99.90
5617;DHT22;2830;50.656;7.568;2024-03-22T01:42:40;7.40;99.90
5617;DHT22;2830;50.656;7.568;2024-03-22T01:45:06;7.40;99.90
5617;DHT22;2830;50.656;7.568;2024-03-22T01:47:32;7.40;99.90
5617;DHT22;2830;50.656;7.568;2024-03-22T01:49:59;7.40;99.90
5617;DHT22;2830;50.656;7.568;2024-03-22T01:52:26;7.40;99.90
5617;DHT22;2830;50.656;7.568;2024-03-22T01:54:52;7.40;99.90
5617;DHT22;2830;50.656;7.568;2024-03-22T01:57:18;7.40;99.90
5617;DHT22;2830;50.656;7.568;2024-03-22T01:59:46;7.30;99.90
5617;DHT22;2830;50.656;7.568;2024-03-22T02:02:15;7.30;99.90
5617;DHT22;2830;50.656;7.568;2024-03-22T02:04:41;7.20;99.90
5617;DHT22;2830;50.656;7.568;2024-03-22T02:07:07;7.10;99.90
5617;DHT22;2830;50.656;7.568;2024-03-22T02:09:33;7.00;99.90
5617;DHT22;2830;50.656;7.568;2024-03-22T02:11:58;7.00;99.90
5617;DHT22;2830;50.656;7.568;2024-03-22T02:14:24;7.00;99.90
5617;DHT22;2830;50.656;7.568;2024-03-22T02:16:51;6.90;99.90
5617;DHT22;2830;50.656;7.568;2024-03-22T02:19:17;6.90;99.90
5617;DHT22;2830;50.656;7.568;2024-03-22T02:21:43;6.90;99.90
5617;DHT22;2830;50.656;7.568;2024-03-22T02:24:08;6.90;99.90
5617;DHT22;2830;50.656;7.568;2024-03-22T02:26:34;6.80;99.90
5617;DHT22;2830;50.656;7.568;2024-03-22T02:29:00;6.70;99.90
5617;DHT22;2830;50.656;7.568;2024-03-22T02:31:26;6.70;99.90
5617;DHT22;2830;50.656;7.568;2024-03-22T02:33:52;6.60;99.90
5617;DHT22;2830;50.656;7.568;2024-03-22T02:36:18;6.60;99.90
5617;DHT22;2830;50.656;7.568;2024-03-22T02:38:44;6.60;99.90
5617;DHT22;2830;50.656;7.568;2024-03-22T02:41:10;6.60;99.90
5617;DHT22;2830;50.656;7.568;2024-03-22T02:43:36;6.60;99.90
5617;DHT22;2830;50.656;7.568;2024-03-22T02:46:02;6.60;99.90
5617;DHT22;2830;50.656;7.568;2024-03-22T02:48:28;6.60;99.90
5617;DHT22;2830;50.656;7.568;2024-03-22T02:50:57;6.60;99.90
5617;DHT22;2830;50.656;7.568;2024-03-22T02:53:23;6.50;99.90
5617;DHT22;2830;50.656;7.568;2024-03-22T02:55:49;6.60;99.90
5617;DHT22;2830;50.656;7.568;2024-03-22T02:58:16;6.50;99.90
5617;DHT22;2830;50.656;7.568;2024-03-22T03:00:42;6.50;99.90
5617;DHT22;2830;50.656;7.568;2024-03-22T03:03:08;6.50;99.90
5617;DHT22;2830;50.656;7.568;2024-03-22T03:05:34;6.50;99.90
5617;DHT22;2830;50.656;7.568;2024-03-22T03:08:00;6.40;99.90
5617;DHT22;2830;50.656;7.568;2024-03-22T03:10:26;6.50;99.90
5617;DHT22;2830;50.656;7.568;2024-03-22T03:12:54;6.50;99.90
5617;DHT22;2830;50.656;7.568;2024-03-22T03:15:20;6.50;99.90
5617;DHT22;2830;50.656;7.568;2024-03-22T03:17:46;6.50;99.90
5617;DHT22;2830;50.656;7.568;2024-03-22T03:20:12;6.60;99.90
5617;DHT22;2830;50.656;7.568;2024-03-22T03:22:42;6.60;99.90
5617;DHT22;2830;50.656;7.568;2024-03-22T03:25:08;6.60;99.90
5617;DHT22;2830;50.656;7.568;2024-03-22T03:27:34;6.60;99.90
5617;DHT22;2830;50.656;7.568;2024-03-22T03:30:01;6.60;99.90
5617;DHT22;2830;50.656;7.568;2024-03-22T03:32:27;6.70;99.90
5617;DHT22;2830;50.656;7.568;2024-03-22T03:34:53;6.70;99.90
5617;DHT22;2830;50.656;7.568;2024-03-22T03:37:19;6.70;99.90
5617;DHT22;2830;50.656;7.568;2024-03-22T03:39:45;6.80;99.90
5617;DHT22;2830;50.656;7.568;2024-03-22T03:42:11;6.80;99.90
5617;DHT22;2830;50.656;7.568;2024-03-22T03:44:37;6.90;99.90
5617;DHT22;2830;50.656;7.568;2024-03-22T03:47:03;7.00;99.90
5617;DHT22;2830;50.656;7.568;2024-03-22T03:49:29;7.00;99.90
5617;DHT22;2830;50.656;7.568;2024-03-22T03:51:55;7.10;99.90
5617;DHT22;2830;50.656;7.568;2024-03-22T03:54:20;7.10;99.90
5617;DHT22;2830;50.656;7.568;2024-03-22T03:56:46;7.10;99.90
5617;DHT22;2830;50.656;7.568;2024-03-22T03:59:12;7.20;99.90
5617;DHT22;2830;50.656;7.568;2024-03-22T04:01:38;7.20;99.90
5617;DHT22;2830;50.656;7.568;2024-03-22T04:04:04;7.30;99.90
5617;DHT22;2830;50.656;7.568;2024-03-22T04:06:30;7.30;99.90
5617;DHT22;2830;50.656;7.568;2024-03-22T04:08:56;7.30;99.90
5617;DHT22;2830;50.656;7.568;2024-03-22T04:11:23;7.40;99.90
5617;DHT22;2830;50.656;7.568;2024-03-22T04:13:49;7.50;99.90
5617;DHT22;2830;50.656;7.568;2024-03-22T04:16:14;7.30;99.90
5617;DHT22;2830;50.656;7.568;2024-03-22T04:18:41;7.30;99.90
5617;DHT22;2830;50.656;7.568;2024-03-22T04:21:07;7.30;99.90
5617;DHT22;2830;50.656;7.568;2024-03-22T04:23:32;7.30;99.90
5617;DHT22;2830;50.656;7.568;2024-03-22T04:25:59;7.40;99.90
5617;DHT22;2830;50.656;7.568;2024-03-22T04:28:29;7.40;99.90
5617;DHT22;2830;50.656;7.568;2024-03-22T04:33:25;7.30;99.90
5617;DHT22;2830;50.656;7.568;2024-03-22T04:35:55;7.40;99.90
5617;DHT22;2830;50.656;7.568;2024-03-22T04:38:25;7.40;99.90
5617;DHT22;2830;50.656;7.568;2024-03-22T04:40:51;7.40;99.90
5617;DHT22;2830;50.656;7.568;2024-03-22T04:43:18;7.40;99.90
5617;DHT22;2830;50.656;7.568;2024-03-22T04:45:44;7.30;99.90
5617;DHT22;2830;50.656;7.568;2024-03-22T04:48:13;7.30;99.90
5617;DHT22;2830;50.656;7.568;2024-03-22T04:50:39;7.30;99.90
5617;DHT22;2830;50.656;7.568;2024-03-22T04:53:05;7.30;99.90
5617;DHT22;2830;50.656;7.568;2024-03-22T04:55:31;7.30;99.90
5617;DHT22;2830;50.656;7.568;2024-03-22T04:57:59;7.40;99.90
5617;DHT22;2830;50.656;7.568;2024-03-22T05:00:25;7.40;99.90
5617;DHT22;2830;50.656;7.568;2024-03-22T05:02:51;7.40;99.90
5617;DHT22;2830;50.656;7.568;2024-03-22T05:05:18;7.50;99.90
5617;DHT22;2830;50.656;7.568;2024-03-22T05:07:44;7.50;99.90
5617;DHT22;2830;50.656;7.568;2024-03-22T05:10:10;7.50;99.90
5617;DHT22;2830;50.656;7.568;2024-03-22T05:12:36;7.50;99.90
5617;DHT22;2830;50.656;7.568;2024-03-22T05:15:03;7.50;99.90
5617;DHT22;2830;50.656;7.568;2024-03-22T05:17:29;7.60;99.90
5617;DHT22;2830;50.656;7.568;2024-03-22T05:19:58;7.60;99.90
5617;DHT22;2830;50.656;7.568;2024-03-22T05:22:24;7.60;99.90
5617;DHT22;2830;50.656;7.568;2024-03-22T05:24:50;7.60;99.90
5617;DHT22;2830;50.656;7.568;2024-03-22T05:27:17;7.60;99.90
5617;DHT22;2830;50.656;7.568;2024-03-22T05:29:43;7.60;99.90
5617;DHT22;2830;50.656;7.568;2024-03-22T05:32:09;7.50;99.90
5617;DHT22;2830;50.656;7.568;2024-03-22T05:34:35;7.60;99.90
5617;DHT22;2830;50.656;7.568;2024-03-22T05:37:02;7.60;99.90
5617;DHT22;2830;50.656;7.568;2024-03-22T05:39:28;7.50;99.90
5617;DHT22;2830;50.656;7.568;2024-03-22T05:41:54;7.60;99.90
5617;DHT22;2830;50.656;7.568;2024-03-22T05:44:22;7.50;99.90
5617;DHT22;2830;50.656;7.568;2024-03-22T05:46:48;7.50;99.90
5617;DHT22;2830;50.656;7.568;2024-03-22T05:49:14;7.50;99.90
5617;DHT22;2830;50.656;7.568;2024-03-22T05:51:40;7.50;99.90
5617;DHT22;2830;50.656;7.568;2024-03-22T05:54:05;7.60;99.90
5617;DHT22;2830;50.656;7.568;2024-03-22T05:56:32;7.60;99.90
5617;DHT22;2830;50.656;7.568;2024-03-22T05:58:58;7.70;99.90
5617;DHT22;2830;50.656;7.568;2024-03-22T06:01:23;7.60;99.90
5617;DHT22;2830;50.656;7.568;2024-03-22T06:03:49;7.70;99.90
5617;DHT22;2830;50.656;7.568;2024-03-22T06:06:15;7.70;99.90
5617;DHT22;2830;50.656;7.568;2024-03-22T06:08:42;7.80;99.90
5617;DHT22;2830;50.656;7.568;2024-03-22T06:11:09;7.80;99.90
5617;DHT22;2830;50.656;7.568;2024-03-22T06:13:35;7.80;99.90
5617;DHT22;2830;50.656;7.568;2024-03-22T06:16:02;7.90;99.90
5617;DHT22;2830;50.656;7.568;2024-03-22T06:18:29;7.90;99.90
5617;DHT22;2830;50.656;7.568;2024-03-22T06:20:55;8.00;99.90
5617;DHT22;2830;50.656;7.568;2024-03-22T06:23:21;8.00;99.90
5617;DHT22;2830;50.656;7.568;2024-03-22T06:25:55;8.00;99.90
5617;DHT22;2830;50.656;7.568;2024-03-22T06:28:22;8.10;99.90
5617;DHT22;2830;50.656;7.568;2024-03-22T06:30:48;8.20;99.90
5617;DHT22;2830;50.656;7.568;2024-03-22T06:33:13;8.20;99.90
5617;DHT22;2830;50.656;7.568;2024-03-22T06:35:41;8.40;99.90
5617;DHT22;2830;50.656;7.568;2024-03-22T06:38:07;8.30;99.90
5617;DHT22;2830;50.656;7.568;2024-03-22T06:40:33;8.40;99.90
5617;DHT22;2830;50.656;7.568;2024-03-22T06:42:59;8.50;99.90
5617;DHT22;2830;50.656;7.568;2024-03-22T06:45:24;8.60;99.90
5617;DHT22;2830;50.656;7.568;2024-03-22T06:47:50;8.60;99.90
5617;DHT22;2830;50.656;7.568;2024-03-22T06:50:16;8.70;99.90
5617;DHT22;2830;50.656;7.568;2024-03-22T06:52:52;8.80;99.90
5617;DHT22;2830;50.656;7.568;2024-03-22T06:55:22;9.00;99.90
5617;DHT22;2830;50.656;7.568;2024-03-22T06:57:49;9.10;99.90
5617;DHT22;2830;50.656;7.568;2024-03-22T07:00:16;9.30;99.90
5617;DHT22;2830;50.656;7.568;2024-03-22T07:02:42;9.50;99.90
5617;DHT22;2830;50.656;7.568;2024-03-22T07:05:08;9.60;99.90
5617;DHT22;2830;50.656;7.568;2024-03-22T07:07:35;9.70;99.90
5617;DHT22;2830;50.656;7.568;2024-03-22T07:10:02;9.80;99.90
5617;DHT22;2830;50.656;7.568;2024-03-22T07:12:29;9.80;99.90
5617;DHT22;2830;50.656;7.568;2024-03-22T07:14:59;9.80;99.90
5617;DHT22;2830;50.656;7.568;2024-03-22T07:17:25;9.80;99.90
5617;DHT22;2830;50.656;7.568;2024-03-22T07:19:51;9.90;99.90
5617;DHT22;2830;50.656;7.568;2024-03-22T07:22:18;10.00;99.90
5617;DHT22;2830;50.656;7.568;2024-03-22T07:24:44;10.10;99.90
5617;DHT22;2830;50.656;7.568;2024-03-22T07:27:10;10.30;99.90
5617;DHT22;2830;50.656;7.568;2024-03-22T07:29:36;10.50;99.90
5617;DHT22;2830;50.656;7.568;2024-03-22T07:32:02;10.60;99.90
5617;DHT22;2830;50.656;7.568;2024-03-22T07:34:29;10.80;99.90
5617;DHT22;2830;50.656;7.568;2024-03-22T07:36:55;11.00;99.90
5617;DHT22;2830;50.656;7.568;2024-03-22T07:39:21;11.10;99.90
5617;DHT22;2830;50.656;7.568;2024-03-22T07:41:47;11.20;99.90
5617;DHT22;2830;50.656;7.568;2024-03-22T07:44:12;11.40;99.90
5617;DHT22;2830;50.656;7.568;2024-03-22T07:46:38;11.50;99.90
5617;DHT22;2830;50.656;7.568;2024-03-22T07:49:04;11.50;99.90
5617;DHT22;2830;50.656;7.568;2024-03-22T07:51:30;11.50;99.90
5617;DHT22;2830;50.656;7.568;2024-03-22T07:53:56;11.40;99.90
5617;DHT22;2830;50.656;7.568;2024-03-22T07:56:22;11.40;99.90
5617;DHT22;2830;50.656;7.568;2024-03-22T07:58:48;11.40;99.90
5617;DHT22;2830;50.656;7.568;2024-03-22T08:01:14;11.90;99.90
5617;DHT22;2830;50.656;7.568;2024-03-22T08:03:40;13.10;99.90
5617;DHT22;2830;50.656;7.568;2024-03-22T08:06:05;14.70;99.90
5617;DHT22;2830;50.656;7.568;2024-03-22T08:08:31;16.50;99.90
5617;DHT22;2830;50.656;7.568;2024-03-22T08:10:57;17.60;99.90
5617;DHT22;2830;50.656;7.568;2024-03-22T08:13:23;18.40;99.90
5617;DHT22;2830;50.656;7.568;2024-03-22T08:15:49;19.40;99.90
5617;DHT22;2830;50.656;7.568;2024-03-22T08:18:15;19.80;99.90
5617;DHT22;2830;50.656;7.568;2024-03-22T08:20:41;18.90;99.90
5617;DHT22;2830;50.656;7.568;2024-03-22T08:23:07;18.30;99.90
5617;DHT22;2830;50.656;7.568;2024-03-22T08:25:33;17.90;99.90
5617;DHT22;2830;50.656;7.568;2024-03-22T08:27:59;18.20;99.90
5617;DHT22;2830;50.656;7.568;2024-03-22T08:30:25;19.40;99.90
5617;DHT22;2830;50.656;7.568;2024-03-22T08:32:52;19.90;99.90
5617;DHT22;2830;50.656;7.568;2024-03-22T08:35:18;20.60;99.90
5617;DHT22;2830;50.656;7.568;2024-03-22T08:37:43;21.10;99.90
5617;DHT22;2830;50.656;7.568;2024-03-22T08:40:10;21.60;99.90
5617;DHT22;2830;50.656;7.568;2024-03-22T08:42:36;21.80;99.90
5617;DHT22;2830;50.656;7.568;2024-03-22T08:45:02;22.10;99.90
5617;DHT22;2830;50.656;7.568;2024-03-22T08:47:30;21.40;99.90
5617;DHT22;2830;50.656;7.568;2024-03-22T08:49:56;20.70;99.90
5617;DHT22;2830;50.656;7.568;2024-03-22T08:52:23;20.60;99.90
5617;DHT22;2830;50.656;7.568;2024-03-22T08:54:53;20.40;99.90
5617;DHT22;2830;50.656;7.568;2024-03-22T08:57:19;19.50;99.90
5617;DHT22;2830;50.656;7.568;2024-03-22T08:59:46;19.30;99.90
5617;DHT22;2830;50.656;7.568;2024-03-22T09:02:12;19.60;99.90
5617;DHT22;2830;50.656;7.568;2024-03-22T09:04:38;19.80;99.90
5617;DHT22;2830;50.656;7.568;2024-03-22T09:07:04;19.60;99.90
5617;DHT22;2830;50.656;7.568;2024-03-22T09:09:30;19.30;99.90
5617;DHT22;2830;50.656;7.568;2024-03-22T09:11:56;19.20;99.90
5617;DHT22;2830;50.656;7.568;2024-03-22T09:14:21;19.30;99.90
5617;DHT22;2830;50.656;7.568;2024-03-22T09:16:47;19.20;99.90
5617;DHT22;2830;50.656;7.568;2024-03-22T09:19:13;19.40;99.90
5617;DHT22;2830;50.656;7.568;2024-03-22T09:21:39;19.40;99.90
5617;DHT22;2830;50.656;7.568;2024-03-22T09:24:05;19.90;99.90
5617;DHT22;2830;50.656;7.568;2024-03-22T09:26:35;19.70;99.90
5617;DHT22;2830;50.656;7.568;2024-03-22T09:29:01;19.90;99.90
5617;DHT22;2830;50.656;7.568;2024-03-22T09:31:26;19.50;99.90
5617;DHT22;2830;50.656;7.568;2024-03-22T09:33:52;18.70;99.90
5617;DHT22;2830;50.656;7.568;2024-03-22T09:36:18;18.20;99.90
5617;DHT22;2830;50.656;7.568;2024-03-22T09:38:44;17.90;99.90
5617;DHT22;2830;50.656;7.568;2024-03-22T09:41:10;17.80;99.90
5617;DHT22;2830;50.656;7.568;2024-03-22T09:43:38;17.80;99.90
5617;DHT22;2830;50.656;7.568;2024-03-22T09:46:05;17.70;99.90
5617;DHT22;2830;50.656;7.568;2024-03-22T09:48:32;17.60;99.90
5617;DHT22;2830;50.656;7.568;2024-03-22T09:50:58;17.70;99.90
5617;DHT22;2830;50.656;7.568;2024-03-22T09:53:27;17.90;99.90
5617;DHT22;2830;50.656;7.568;2024-03-22T09:55:55;18.50;99.90
5617;DHT22;2830;50.656;7.568;2024-03-22T09:58:23;18.50;99.90
5617;DHT22;2830;50.656;7.568;2024-03-22T10:00:50;18.80;99.90
5617;DHT22;2830;50.656;7.568;2024-03-22T10:03:16;18.90;99.90
5617;DHT22;2830;50.656;7.568;2024-03-22T10:05:42;19.00;99.90
5617;DHT22;2830;50.656;7.568;2024-03-22T10:08:08;18.50;99.90
5617;DHT22;2830;50.656;7.568;2024-03-22T10:10:34;17.80;99.90
5617;DHT22;2830;50.656;7.568;2024-03-22T10:13:01;17.50;99.90
5617;DHT22;2830;50.656;7.568;2024-03-22T10:15:27;17.50;99.90
5617;DHT22;2830;50.656;7.568;2024-03-22T10:17:56;17.60;99.90
5617;DHT22;2830;50.656;7.568;2024-03-22T10:20:22;17.60;99.90
5617;DHT22;2830;50.656;7.568;2024-03-22T10:22:53;17.60;99.90
5617;DHT22;2830;50.656;7.568;2024-03-22T10:25:20;17.80;99.90
5617;DHT22;2830;50.656;7.568;2024-03-22T10:27:47;18.00;99.90
5617;DHT22;2830;50.656;7.568;2024-03-22T10:30:15;18.00;99.90
5617;DHT22;2830;50.656;7.568;2024-03-22T10:32:42;17.90;99.90
5617;DHT22;2830;50.656;7.568;2024-03-22T10:35:12;18.00;99.90
5617;DHT22;2830;50.656;7.568;2024-03-22T10:37:39;17.70;99.90
5617;DHT22;2830;50.656;7.568;2024-03-22T10:40:06;17.50;99.90
5617;DHT22;2830;50.656;7.568;2024-03-22T10:42:41;17.50;99.90
5617;DHT22;2830;50.656;7.568;2024-03-22T10:45:08;17.60;99.90
5617;DHT22;2830;50.656;7.568;2024-03-22T10:47:35;17.40;99.90
5617;DHT22;2830;50.656;7.568;2024-03-22T10:50:05;17.30;99.90
5617;DHT22;2830;50.656;7.568;2024-03-22T10:57:59;17.40;99.90
5617;DHT22;2830;50.656;7.568;2024-03-22T11:00:29;17.20;99.90
5617;DHT22;2830;50.656;7.568;2024-03-22T11:02:55;17.10;99.90
5617;DHT22;2830;50.656;7.568;2024-03-22T11:05:22;16.80;99.90
5617;DHT22;2830;50.656;7.568;2024-03-22T11:07:59;16.90;99.90
5617;DHT22;2830;50.656;7.568;2024-03-22T11:10:34;16.90;99.90
5617;DHT22;2830;50.656;7.568;2024-03-22T11:13:01;16.80;99.90
5617;DHT22;2830;50.656;7.568;2024-03-22T11:15:31;17.00;99.90
5617;DHT22;2830;50.656;7.568;2024-03-22T11:17:58;17.10;99.90
5617;DHT22;2830;50.656;7.568;2024-03-22T11:20:25;17.30;99.90
5617;DHT22;2830;50.656;7.568;2024-03-22T11:22:52;17.60;99.90
5617;DHT22;2830;50.656;7.568;2024-03-22T11:25:18;17.60;99.90
5617;DHT22;2830;50.656;7.568;2024-03-22T11:27:48;17.50;99.90
5617;DHT22;2830;50.656;7.568;2024-03-22T11:30:15;17.50;99.90
5617;DHT22;2830;50.656;7.568;2024-03-22T11:32:43;17.40;99.90
5617;DHT22;2830;50.656;7.568;2024-03-22T11:35:12;17.40;99.90
5617;DHT22;2830;50.656;7.568;2024-03-22T11:37:39;17.50;99.90
5617;DHT22;2830;50.656;7.568;2024-03-22T11:40:09;17.60;99.90
5617;DHT22;2830;50.656;7.568;2024-03-22T11:42:41;17.60;99.90
5617;DHT22;2830;50.656;7.568;2024-03-22T11:45:09;17.40;99.90
5617;DHT22;2830;50.656;7.568;2024-03-22T11:47:35;17.40;99.90
5617;DHT22;2830;50.656;7.568;2024-03-22T11:50:02;17.50;99.90
5617;DHT22;2830;50.656;7.568;2024-03-22T11:52:28;17.60;99.90
5617;DHT22;2830;50.656;7.568;2024-03-22T11:54:55;17.70;99.90
5617;DHT22;2830;50.656;7.568;2024-03-22T11:57:22;17.70;99.90
5617;DHT22;2830;50.656;7.568;2024-03-22T11:59:47;18.10;99.90
5617;DHT22;2830;50.656;7.568;2024-03-22T12:02:13;18.50;99.90
5617;DHT22;2830;50.656;7.568;2024-03-22T12:04:46;19.00;99.90
5617;DHT22;2830;50.656;7.568;2024-03-22T12:07:17;19.00;99.90
5617;DHT22;2830;50.656;7.568;2024-03-22T12:09:44;19.30;99.90
5617;DHT22;2830;50.656;7.568;2024-03-22T12:12:11;19.00;99.90
5617;DHT22;2830;50.656;7.568;2024-03-22T12:14:37;19.20;99.90
5617;DHT22;2830;50.656;7.568;2024-03-22T12:17:05;19.30;99.90
5617;DHT22;2830;50.656;7.568;2024-03-22T12:19:31;19.40;99.90
5617;DHT22;2830;50.656;7.568;2024-03-22T12:21:57;18.90;99.90
5617;DHT22;2830;50.656;7.568;2024-03-22T12:24:23;18.80;99.90
5617;DHT22;2830;50.656;7.568;2024-03-22T12:26:50;18.50;99.90
5617;DHT22;2830;50.656;7.568;2024-03-22T12:29:16;18.20;99.90
5617;DHT22;2830;50.656;7.568;2024-03-22T12:31:43;18.00;99.90
5617;DHT22;2830;50.656;7.568;2024-03-22T12:34:09;17.80;99.90
5617;DHT22;2830;50.656;7.568;2024-03-22T12:36:35;17.20;99.90
5617;DHT22;2830;50.656;7.568;2024-03-22T12:39:01;17.40;99.90
5617;DHT22;2830;50.656;7.568;2024-03-22T12:41:28;17.40;99.90
5617;DHT22;2830;50.656;7.568;2024-03-22T12:43:55;17.50;99.90
5617;DHT22;2830;50.656;7.568;2024-03-22T12:46:21;17.40;99.90
5617;DHT22;2830;50.656;7.568;2024-03-22T12:48:47;17.50;99.90
5617;DHT22;2830;50.656;7.568;2024-03-22T12:51:13;17.80;99.90
5617;DHT22;2830;50.656;7.568;2024-03-22T12:53:39;17.70;99.90
5617;DHT22;2830;50.656;7.568;2024-03-22T12:56:05;18.40;99.90
5617;DHT22;2830;50.656;7.568;2024-03-22T12:58:31;19.00;99.90
5617;DHT22;2830;50.656;7.568;2024-03-22T13:00:58;19.20;99.90
5617;DHT22;2830;50.656;7.568;2024-03-22T13:03:25;19.10;99.90
5617;DHT22;2830;50.656;7.568;2024-03-22T13:05:51;18.70;99.90
5617;DHT22;2830;50.656;7.568;2024-03-22T13:08:17;18.00;99.90
5617;DHT22;2830;50.656;7.568;2024-03-22T13:10:48;17.70;99.90
5617;DHT22;2830;50.656;7.568;2024-03-22T13:13:14;17.50;99.90
5617;DHT22;2830;50.656;7.568;2024-03-22T13:15:45;17.30;99.90
5617;DHT22;2830;50.656;7.568;2024-03-22T13:18:12;17.30;99.90
5617;DHT22;2830;50.656;7.568;2024-03-22T13:20:38;17.40;99.90
5617;DHT22;2830;50.656;7.568;2024-03-22T13:23:05;17.40;99.90
5617;DHT22;2830;50.656;7.568;2024-03-22T13:25:31;17.50;99.90
5617;DHT22;2830;50.656;7.568;2024-03-22T13:27:57;18.00;99.90
5617;DHT22;2830;50.656;7.568;2024-03-22T13:30:22;18.40;99.90
5617;DHT22;2830;50.656;7.568;2024-03-22T13:32:48;18.50;99.90
5617;DHT22;2830;50.656;7.568;2024-03-22T13:35:14;18.50;99.90
5617;DHT22;2830;50.656;7.568;2024-03-22T13:37:41;18.20;99.90
5617;DHT22;2830;50.656;7.568;2024-03-22T13:40:07;17.90;99.90
5617;DHT22;2830;50.656;7.568;2024-03-22T13:42:34;17.70;99.90
5617;DHT22;2830;50.656;7.568;2024-03-22T13:45:00;18.00;99.90
5617;DHT22;2830;50.656;7.568;2024-03-22T13:47:27;18.60;99.90
5617;DHT22;2830;50.656;7.568;2024-03-22T13:49:56;19.00;99.90
5617;DHT22;2830;50.656;7.568;2024-03-22T13:52:21;19.10;99.90
5617;DHT22;2830;50.656;7.568;2024-03-22T13:54:47;19.40;99.90
5617;DHT22;2830;50.656;7.568;2024-03-22T13:57:13;19.50;99.90
5617;DHT22;2830;50.656;7.568;2024-03-22T13:59:39;19.30;99.90
5617;DHT22;2830;50.656;7.568;2024-03-22T14:02:06;19.10;99.90
5617;DHT22;2830;50.656;7.568;2024-03-22T14:04:34;19.30;99.90
5617;DHT22;2830;50.656;7.568;2024-03-22T14:06:59;19.40;99.90
5617;DHT22;2830;50.656;7.568;2024-03-22T14:09:33;19.20;99.90
5617;DHT22;2830;50.656;7.568;2024-03-22T14:11:59;18.90;99.90
5617;DHT22;2830;50.656;7.568;2024-03-22T14:14:26;18.70;99.90
5617;DHT22;2830;50.656;7.568;2024-03-22T14:16:52;18.30;99.90
5617;DHT22;2830;50.656;7.568;2024-03-22T14:19:18;18.20;99.90
5617;DHT22;2830;50.656;7.568;2024-03-22T14:21:47;18.10;99.90
5617;DHT22;2830;50.656;7.568;2024-03-22T14:24:13;17.80;99.90
5617;DHT22;2830;50.656;7.568;2024-03-22T14:26:39;17.70;99.90
5617;DHT22;2830;50.656;7.568;2024-03-22T14:29:12;17.40;99.90
5617;DHT22;2830;50.656;7.568;2024-03-22T14:31:38;17.50;99.90
5617;DHT22;2830;50.656;7.568;2024-03-22T14:34:06;17.60;99.90
5617;DHT22;2830;50.656;7.568;2024-03-22T14:36:32;17.50;99.90
5617;DHT22;2830;50.656;7.568;2024-03-22T14:38:59;17.60;99.90
5617;DHT22;2830;50.656;7.568;2024-03-22T14:41:25;17.50;99.90
5617;DHT22;2830;50.656;7.568;2024-03-22T14:43:50;17.40;99.90
5617;DHT22;2830;50.656;7.568;2024-03-22T14:46:16;17.40;99.90
5617;DHT22;2830;50.656;7.568;2024-03-22T14:48:45;17.30;99.90
5617;DHT22;2830;50.656;7.568;2024-03-22T14:51:11;17.30;99.90
5617;DHT22;2830;50.656;7.568;2024-03-22T14:53:37;17.20;99.90
5617;DHT22;2830;50.656;7.568;2024-03-22T14:56:03;17.30;99.90
5617;DHT22;2830;50.656;7.568;2024-03-22T14:58:34;17.40;99.90
5617;DHT22;2830;50.656;7.568;2024-03-22T15:01:02;17.30;99.90
5617;DHT22;2830;50.656;7.568;2024-03-22T15:03:28;17.10;99.90
5617;DHT22;2830;50.656;7.568;2024-03-22T15:05:56;17.10;99.90
5617;DHT22;2830;50.656;7.568;2024-03-22T15:08:22;17.10;99.90
5617;DHT22;2830;50.656;7.568;2024-03-22T15:10:49;17.10;99.90
5617;DHT22;2830;50.656;7.568;2024-03-22T15:13:16;17.00;99.90
5617;DHT22;2830;50.656;7.568;2024-03-22T15:15:43;17.10;99.90
5617;DHT22;2830;50.656;7.568;2024-03-22T15:18:09;16.90;99.90
5617;DHT22;2830;50.656;7.568;2024-03-22T15:20:36;17.00;99.90
5617;DHT22;2830;50.656;7.568;2024-03-22T15:23:02;17.10;99.90
5617;DHT22;2830;50.656;7.568;2024-03-22T15:25:29;17.30;99.90
5617;DHT22;2830;50.656;7.568;2024-03-22T15:27:55;17.40;99.90
5617;DHT22;2830;50.656;7.568;2024-03-22T15:30:25;17.40;99.90
5617;DHT22;2830;50.656;7.568;2024-03-22T15:32:50;17.50;99.90
5617;DHT22;2830;50.656;7.568;2024-03-22T15:35:19;17.50;99.90
5617;DHT22;2830;50.656;7.568;2024-03-22T15:37:45;17.60;99.90
5617;DHT22;2830;50.656;7.568;2024-03-22T15:40:11;17.50;99.90
5617;DHT22;2830;50.656;7.568;2024-03-22T15:42:37;17.50;99.90
5617;DHT22;2830;50.656;7.568;2024-03-22T15:45:03;17.40;99.90
5617;DHT22;2830;50.656;7.568;2024-03-22T15:47:34;17.30;99.90
5617;DHT22;2830;50.656;7.568;2024-03-22T15:50:00;17.30;99.90
5617;DHT22;2830;50.656;7.568;2024-03-22T15:52:26;17.30;99.90
5617;DHT22;2830;50.656;7.568;2024-03-22T15:54:53;17.20;99.90
5617;DHT22;2830;50.656;7.568;2024-03-22T15:57:19;17.10;99.90
5617;DHT22;2830;50.656;7.568;2024-03-22T15:59:45;17.10;99.90
5617;DHT22;2830;50.656;7.568;2024-03-22T16:02:11;16.90;99.90
5617;DHT22;2830;50.656;7.568;2024-03-22T16:04:37;16.70;99.90
5617;DHT22;2830;50.656;7.568;2024-03-22T16:07:06;16.60;99.90
5617;DHT22;2830;50.656;7.568;2024-03-22T16:09:35;16.60;99.90
5617;DHT22;2830;50.656;7.568;2024-03-22T16:12:01;16.50;99.90